This is the latest recevied weather packets stored in our database for station/object WA6MHA-11. If no packets are shown the sender has not sent any weather packets the latest 1 day(s).
| Time | Temp. | Humidity | Pressure | Rain* | Wind** | Luminosity | Snow |
|---|---|---|---|---|---|---|---|
| 1836274510 | 21.67° C | 46% | 1014.8 hPa | 0 mm | 0 m/s | - | - |
| 1836274484 | 21.11° C | 46% | 1015 hPa | 0 mm | 0 m/s | - | - |
| 1836274028 | 21.11° C | 45% | 1014.8 hPa | 0 mm | 0.45 m/s, 247° | - | - |
| 1778035464 | 15.56° C | 42% | 1015.7 hPa | 0 mm | 1.34 m/s, 108° | - | - |
| 1778035223 | 15.56° C | 41% | 1015.8 hPa | 0 mm | 2.24 m/s, 83° | - | - |
| 1778034504 | 16.11° C | 41% | 1015.7 hPa | 0 mm | 0.45 m/s, 135° | - | - |
| 1778034257 | 16.11° C | 40% | 1015.5 hPa | 0 mm | 1.34 m/s, 85° | - | - |
| 1778034020 | 16.11° C | 40% | 1015.6 hPa | 0 mm | 1.34 m/s, 135° | - | - |
| 1778033775 | 16.11° C | 40% | 1015.4 hPa | 0 mm | 2.24 m/s, 128° | - | - |
| 1778033534 | 16.67° C | 40% | 1015.4 hPa | 0 mm | 2.24 m/s, 85° | - | - |
| 1778033293 | 16.67° C | 39% | 1015.3 hPa | 0 mm | 1.79 m/s, 135° | - | - |
| 1778033051 | 16.67° C | 39% | 1015.4 hPa | 0 mm | 1.34 m/s, 87° | - | - |
| 1778032328 | 16.67° C | 38% | 1015.3 hPa | 0 mm | 1.34 m/s, 112° | - | - |
| 1778032086 | 17.22° C | 38% | 1015.3 hPa | 0 mm | 1.79 m/s, 135° | - | - |
| 1778031845 | 17.22° C | 38% | 1015.3 hPa | 0 mm | 1.34 m/s, 155° | - | - |
| 1778031603 | 17.22° C | 37% | 1015.2 hPa | 0 mm | 1.79 m/s, 114° | - | - |
| 1778031121 | 17.78° C | 37% | 1015.1 hPa | 0 mm | 1.79 m/s, 117° | - | - |
| 1778030639 | 18.33° C | 37% | 1015.1 hPa | 0 mm | 1.79 m/s, 110° | - | - |
| 1778030397 | 18.33° C | 36% | 1015.1 hPa | 0 mm | 1.79 m/s, 148° | - | - |
| 1778030156 | 18.33° C | 36% | 1015 hPa | 0 mm | 0.45 m/s, 123° | - | - |
| 1778029914 | 18.33° C | 36% | 1015.1 hPa | 0 mm | 1.34 m/s, 157° | - | - |
| 1778029673 | 18.33° C | 36% | 1015.1 hPa | 0 mm | 1.79 m/s, 144° | - | - |
| 1778029191 | 18.89° C | 36% | 1015.1 hPa | 0 mm | 2.68 m/s, 132° | - | - |
| 1778028950 | 18.89° C | 35% | 1015.1 hPa | 0 mm | 1.34 m/s, 123° | - | - |
| 1778028501 | 19.44° C | 35% | 1015 hPa | 0 mm | 1.34 m/s, 135° | - | - |
* Rain since midnight (hover to see other rain measurements)
** Current wind speed in m/s (hover to see current wind gust speed)